sensor_id;sensor_type;location;lat;lon;timestamp;temperature;humidity
74484;SHT31;62942;52.462;10.846;2022-11-14T00:00:48;5.6;98.3
74484;SHT31;62942;52.462;10.846;2022-11-14T00:01:57;5.7;98.3
74484;SHT31;62942;52.462;10.846;2022-11-14T00:03:08;5.7;98.2
74484;SHT31;62942;52.462;10.846;2022-11-14T00:04:07;5.7;98.2
74484;SHT31;62942;52.462;10.846;2022-11-14T00:05:18;5.7;98.2
74484;SHT31;62942;52.462;10.846;2022-11-14T00:06:19;5.7;98.2
74484;SHT31;62942;52.462;10.846;2022-11-14T00:07:28;5.7;98.2
74484;SHT31;62942;52.462;10.846;2022-11-14T00:08:27;5.7;98.3
74484;SHT31;62942;52.462;10.846;2022-11-14T00:09:37;5.7;98.2
74484;SHT31;62942;52.462;10.846;2022-11-14T00:10:48;5.7;98.2
74484;SHT31;62942;52.462;10.846;2022-11-14T00:11:47;5.7;98.2
74484;SHT31;62942;52.462;10.846;2022-11-14T00:12:47;5.7;98.1
74484;SHT31;62942;52.462;10.846;2022-11-14T00:13:57;5.7;98.2
74484;SHT31;62942;52.462;10.846;2022-11-14T00:15:08;5.7;98.2
74484;SHT31;62942;52.462;10.846;2022-11-14T00:16:17;5.7;98.2
74484;SHT31;62942;52.462;10.846;2022-11-14T00:17:17;5.7;98.2
74484;SHT31;62942;52.462;10.846;2022-11-14T00:18:17;5.7;98.2
74484;SHT31;62942;52.462;10.846;2022-11-14T00:19:27;5.7;98.2
74484;SHT31;62942;52.462;10.846;2022-11-14T00:20:37;5.7;98.2
74484;SHT31;62942;52.462;10.846;2022-11-14T00:21:37;5.7;98.2
74484;SHT31;62942;52.462;10.846;2022-11-14T00:22:37;5.7;98.1
74484;SHT31;62942;52.462;10.846;2022-11-14T00:23:47;5.7;98.1
74484;SHT31;62942;52.462;10.846;2022-11-14T00:24:47;5.7;98.1
74484;SHT31;62942;52.462;10.846;2022-11-14T00:25:57;5.7;98.2
74484;SHT31;62942;52.462;10.846;2022-11-14T00:26:57;5.7;98.2
74484;SHT31;62942;52.462;10.846;2022-11-14T00:28:07;5.7;98.1
74484;SHT31;62942;52.462;10.846;2022-11-14T00:29:17;5.7;98
74484;SHT31;62942;52.462;10.846;2022-11-14T00:30:27;5.7;98.1
74484;SHT31;62942;52.462;10.846;2022-11-14T00:31:28;5.7;98.1
74484;SHT31;62942;52.462;10.846;2022-11-14T00:32:37;5.8;98.1
74484;SHT31;62942;52.462;10.846;2022-11-14T00:33:47;5.8;98.1
74484;SHT31;62942;52.462;10.846;2022-11-14T00:34:57;5.8;98.1
74484;SHT31;62942;52.462;10.846;2022-11-14T00:36:07;5.8;98.1
74484;SHT31;62942;52.462;10.846;2022-11-14T00:37:07;5.8;98
74484;SHT31;62942;52.462;10.846;2022-11-14T00:38:17;5.8;98
74484;SHT31;62942;52.462;10.846;2022-11-14T00:39:27;5.8;98
74484;SHT31;62942;52.462;10.846;2022-11-14T00:40:37;5.8;97.9
74484;SHT31;62942;52.462;10.846;2022-11-14T00:41:37;5.8;97.9
74484;SHT31;62942;52.462;10.846;2022-11-14T00:42:47;5.8;97.9
74484;SHT31;62942;52.462;10.846;2022-11-14T00:43:57;5.8;98
74484;SHT31;62942;52.462;10.846;2022-11-14T00:44:57;5.8;98
74484;SHT31;62942;52.462;10.846;2022-11-14T00:46:07;5.8;98
74484;SHT31;62942;52.462;10.846;2022-11-14T00:47:17;5.8;97.9
74484;SHT31;62942;52.462;10.846;2022-11-14T00:48:17;5.8;97.9
74484;SHT31;62942;52.462;10.846;2022-11-14T00:49:27;5.8;97.9
74484;SHT31;62942;52.462;10.846;2022-11-14T00:50:27;5.8;97.9
74484;SHT31;62942;52.462;10.846;2022-11-14T00:51:37;5.8;97.9
74484;SHT31;62942;52.462;10.846;2022-11-14T00:52:47;5.8;97.9
74484;SHT31;62942;52.462;10.846;2022-11-14T00:53:57;5.8;97.8
74484;SHT31;62942;52.462;10.846;2022-11-14T00:54:57;5.8;97.7
74484;SHT31;62942;52.462;10.846;2022-11-14T00:56:07;5.8;97.8
74484;SHT31;62942;52.462;10.846;2022-11-14T00:57:07;5.8;97.9
74484;SHT31;62942;52.462;10.846;2022-11-14T00:58:17;5.8;97.8
74484;SHT31;62942;52.462;10.846;2022-11-14T00:59:27;5.8;97.8
74484;SHT31;62942;52.462;10.846;2022-11-14T01:00:37;5.8;97.7
74484;SHT31;62942;52.462;10.846;2022-11-14T01:01:37;5.8;97.6
74484;SHT31;62942;52.462;10.846;2022-11-14T01:02:47;5.8;97.6
74484;SHT31;62942;52.462;10.846;2022-11-14T01:03:47;5.8;97.7
74484;SHT31;62942;52.462;10.846;2022-11-14T01:04:47;5.8;97.7
74484;SHT31;62942;52.462;10.846;2022-11-14T01:06:01;5.8;97.7
74484;SHT31;62942;52.462;10.846;2022-11-14T01:06:57;5.8;97.7
74484;SHT31;62942;52.462;10.846;2022-11-14T01:08:07;5.8;97.7
74484;SHT31;62942;52.462;10.846;2022-11-14T01:09:07;5.8;97.7
74484;SHT31;62942;52.462;10.846;2022-11-14T01:10:08;5.8;97.7
74484;SHT31;62942;52.462;10.846;2022-11-14T01:11:18;5.8;97.6
74484;SHT31;62942;52.462;10.846;2022-11-14T01:12:17;5.8;97.6
74484;SHT31;62942;52.462;10.846;2022-11-14T01:13:30;5.8;97.7
74484;SHT31;62942;52.462;10.846;2022-11-14T01:14:27;5.8;97.6
74484;SHT31;62942;52.462;10.846;2022-11-14T01:15:38;5.8;97.6
74484;SHT31;62942;52.462;10.846;2022-11-14T01:16:47;5.8;97.6
74484;SHT31;62942;52.462;10.846;2022-11-14T01:17:47;5.8;97.6
74484;SHT31;62942;52.462;10.846;2022-11-14T01:18:47;5.8;97.7
74484;SHT31;62942;52.462;10.846;2022-11-14T01:19:47;5.8;97.7
74484;SHT31;62942;52.462;10.846;2022-11-14T01:20:57;5.8;97.6
74484;SHT31;62942;52.462;10.846;2022-11-14T01:21:57;5.8;97.7
74484;SHT31;62942;52.462;10.846;2022-11-14T01:23:08;5.8;97.7
74484;SHT31;62942;52.462;10.846;2022-11-14T01:24:07;5.8;97.6
74484;SHT31;62942;52.462;10.846;2022-11-14T01:25:17;5.8;97.6
74484;SHT31;62942;52.462;10.846;2022-11-14T01:26:27;5.8;97.7
74484;SHT31;62942;52.462;10.846;2022-11-14T01:27:29;5.8;97.7
74484;SHT31;62942;52.462;10.846;2022-11-14T01:28:38;5.8;97.7
74484;SHT31;62942;52.462;10.846;2022-11-14T01:29:47;5.8;97.7
74484;SHT31;62942;52.462;10.846;2022-11-14T01:30:47;5.8;97.7
74484;SHT31;62942;52.462;10.846;2022-11-14T01:31:57;5.8;97.6
74484;SHT31;62942;52.462;10.846;2022-11-14T01:32:57;5.8;97.6
74484;SHT31;62942;52.462;10.846;2022-11-14T01:34:08;5.8;97.6
74484;SHT31;62942;52.462;10.846;2022-11-14T01:35:17;5.8;97.5
74484;SHT31;62942;52.462;10.846;2022-11-14T01:36:17;5.8;97.6
74484;SHT31;62942;52.462;10.846;2022-11-14T01:37:27;5.8;97.6
74484;SHT31;62942;52.462;10.846;2022-11-14T01:38:27;5.7;97.6
74484;SHT31;62942;52.462;10.846;2022-11-14T01:39:37;5.8;97.6
74484;SHT31;62942;52.462;10.846;2022-11-14T01:40:39;5.8;97.5
74484;SHT31;62942;52.462;10.846;2022-11-14T01:41:47;5.8;97.6
74484;SHT31;62942;52.462;10.846;2022-11-14T01:43:28;5.8;97.6
74484;SHT31;62942;52.462;10.846;2022-11-14T01:43:57;5.8;97.6
74484;SHT31;62942;52.462;10.846;2022-11-14T01:46:14;5.7;97.6
74484;SHT31;62942;52.462;10.846;2022-11-14T01:46:18;5.8;97.5
74484;SHT31;62942;52.462;10.846;2022-11-14T01:47:19;5.7;97.5
74484;SHT31;62942;52.462;10.846;2022-11-14T01:48:30;5.8;97.5
74484;SHT31;62942;52.462;10.846;2022-11-14T01:49:38;5.7;97.5
74484;SHT31;62942;52.462;10.846;2022-11-14T01:50:37;5.7;97.5
74484;SHT31;62942;52.462;10.846;2022-11-14T01:51:48;5.7;97.4
74484;SHT31;62942;52.462;10.846;2022-11-14T01:52:47;5.7;97.4
74484;SHT31;62942;52.462;10.846;2022-11-14T01:53:58;5.7;97.4
74484;SHT31;62942;52.462;10.846;2022-11-14T01:55:08;5.7;97.4
74484;SHT31;62942;52.462;10.846;2022-11-14T01:56:07;5.7;97.4
74484;SHT31;62942;52.462;10.846;2022-11-14T01:57:19;5.7;97.4
74484;SHT31;62942;52.462;10.846;2022-11-14T01:58:27;5.7;97.4
74484;SHT31;62942;52.462;10.846;2022-11-14T01:59:34;5.7;97.3
74484;SHT31;62942;52.462;10.846;2022-11-14T02:00:37;5.7;97.3
74484;SHT31;62942;52.462;10.846;2022-11-14T02:01:48;5.7;97.2
74484;SHT31;62942;52.462;10.846;2022-11-14T02:02:47;5.7;97.3
74484;SHT31;62942;52.462;10.846;2022-11-14T02:03:57;5.7;97.3
74484;SHT31;62942;52.462;10.846;2022-11-14T02:04:58;5.7;97.3
74484;SHT31;62942;52.462;10.846;2022-11-14T02:06:08;5.7;97.4
74484;SHT31;62942;52.462;10.846;2022-11-14T02:07:07;5.7;97.3
74484;SHT31;62942;52.462;10.846;2022-11-14T02:08:17;5.7;97.3
74484;SHT31;62942;52.462;10.846;2022-11-14T02:09:28;5.7;97.4
74484;SHT31;62942;52.462;10.846;2022-11-14T02:10:27;5.7;97.2
74484;SHT31;62942;52.462;10.846;2022-11-14T02:11:28;5.7;97.2
74484;SHT31;62942;52.462;10.846;2022-11-14T02:12:37;5.7;97.4
74484;SHT31;62942;52.462;10.846;2022-11-14T02:13:47;5.7;97.4
74484;SHT31;62942;52.462;10.846;2022-11-14T02:14:49;5.7;97.3
74484;SHT31;62942;52.462;10.846;2022-11-14T02:15:47;5.7;97.3
74484;SHT31;62942;52.462;10.846;2022-11-14T02:16:57;5.7;97.4
74484;SHT31;62942;52.462;10.846;2022-11-14T02:18:07;5.7;97.2
74484;SHT31;62942;52.462;10.846;2022-11-14T02:19:07;5.7;97.3
74484;SHT31;62942;52.462;10.846;2022-11-14T02:20:18;5.7;97.3
74484;SHT31;62942;52.462;10.846;2022-11-14T02:21:17;5.7;97.2
74484;SHT31;62942;52.462;10.846;2022-11-14T02:22:27;5.7;97.3
74484;SHT31;62942;52.462;10.846;2022-11-14T02:23:28;5.6;97.2
74484;SHT31;62942;52.462;10.846;2022-11-14T02:24:37;5.7;97.3
74484;SHT31;62942;52.462;10.846;2022-11-14T02:25:37;5.7;97.2
74484;SHT31;62942;52.462;10.846;2022-11-14T02:26:47;5.6;97.2
74484;SHT31;62942;52.462;10.846;2022-11-14T02:27:47;5.7;97.1
74484;SHT31;62942;52.462;10.846;2022-11-14T02:28:57;5.6;97.1
74484;SHT31;62942;52.462;10.846;2022-11-14T02:30:01;5.6;97.1
74484;SHT31;62942;52.462;10.846;2022-11-14T02:31:07;5.6;97
74484;SHT31;62942;52.462;10.846;2022-11-14T02:32:17;5.6;96.9
74484;SHT31;62942;52.462;10.846;2022-11-14T02:33:17;5.6;97
74484;SHT31;62942;52.462;10.846;2022-11-14T02:34:27;5.6;96.9
74484;SHT31;62942;52.462;10.846;2022-11-14T02:35:27;5.6;96.9
74484;SHT31;62942;52.462;10.846;2022-11-14T02:36:27;5.6;96.9
74484;SHT31;62942;52.462;10.846;2022-11-14T02:37:27;5.6;96.9
74484;SHT31;62942;52.462;10.846;2022-11-14T02:38:37;5.6;96.9
74484;SHT31;62942;52.462;10.846;2022-11-14T02:39:37;5.6;96.8
74484;SHT31;62942;52.462;10.846;2022-11-14T02:40:47;5.6;96.8
74484;SHT31;62942;52.462;10.846;2022-11-14T02:41:57;5.6;96.8
74484;SHT31;62942;52.462;10.846;2022-11-14T02:42:57;5.6;96.8
74484;SHT31;62942;52.462;10.846;2022-11-14T02:43:57;5.6;96.8
74484;SHT31;62942;52.462;10.846;2022-11-14T02:45:08;5.6;96.8
74484;SHT31;62942;52.462;10.846;2022-11-14T02:46:17;5.6;96.8
74484;SHT31;62942;52.462;10.846;2022-11-14T02:47:17;5.6;96.8
74484;SHT31;62942;52.462;10.846;2022-11-14T02:48:27;5.6;96.8
74484;SHT31;62942;52.462;10.846;2022-11-14T02:49:27;5.6;96.8
74484;SHT31;62942;52.462;10.846;2022-11-14T02:50:37;5.6;96.8
74484;SHT31;62942;52.462;10.846;2022-11-14T02:51:37;5.6;96.9
74484;SHT31;62942;52.462;10.846;2022-11-14T02:52:47;5.6;96.8
74484;SHT31;62942;52.462;10.846;2022-11-14T02:53:57;5.6;96.8
74484;SHT31;62942;52.462;10.846;2022-11-14T02:54:57;5.6;96.9
74484;SHT31;62942;52.462;10.846;2022-11-14T02:56:07;5.6;97
74484;SHT31;62942;52.462;10.846;2022-11-14T02:57:07;5.6;96.8
74484;SHT31;62942;52.462;10.846;2022-11-14T02:58:17;5.6;96.8
74484;SHT31;62942;52.462;10.846;2022-11-14T02:59:17;5.6;96.9
74484;SHT31;62942;52.462;10.846;2022-11-14T03:00:27;5.6;96.9
74484;SHT31;62942;52.462;10.846;2022-11-14T03:01:27;5.6;96.9
74484;SHT31;62942;52.462;10.846;2022-11-14T03:02:37;5.6;96.9
74484;SHT31;62942;52.462;10.846;2022-11-14T03:03:37;5.6;97
74484;SHT31;62942;52.462;10.846;2022-11-14T03:04:47;5.6;97
74484;SHT31;62942;52.462;10.846;2022-11-14T03:05:47;5.6;96.9
74484;SHT31;62942;52.462;10.846;2022-11-14T03:06:47;5.6;97
74484;SHT31;62942;52.462;10.846;2022-11-14T03:07:57;5.6;97
74484;SHT31;62942;52.462;10.846;2022-11-14T03:09:07;5.6;96.9
74484;SHT31;62942;52.462;10.846;2022-11-14T03:10:07;5.6;96.9
74484;SHT31;62942;52.462;10.846;2022-11-14T03:11:08;5.6;96.9
74484;SHT31;62942;52.462;10.846;2022-11-14T03:12:18;5.6;96.9
74484;SHT31;62942;52.462;10.846;2022-11-14T03:13:27;5.6;96.9
74484;SHT31;62942;52.462;10.846;2022-11-14T03:14:28;5.6;96.9
74484;SHT31;62942;52.462;10.846;2022-11-14T03:15:37;5.6;96.8
74484;SHT31;62942;52.462;10.846;2022-11-14T03:16:47;5.6;96.9
74484;SHT31;62942;52.462;10.846;2022-11-14T03:17:47;5.6;96.9
74484;SHT31;62942;52.462;10.846;2022-11-14T03:18:47;5.6;96.9
74484;SHT31;62942;52.462;10.846;2022-11-14T03:19:57;5.6;96.9
74484;SHT31;62942;52.462;10.846;2022-11-14T03:21:03;5.7;96.9
74484;SHT31;62942;52.462;10.846;2022-11-14T03:22:07;5.7;96.9
74484;SHT31;62942;52.462;10.846;2022-11-14T03:23:07;5.7;96.9
74484;SHT31;62942;52.462;10.846;2022-11-14T03:24:17;5.6;96.9
74484;SHT31;62942;52.462;10.846;2022-11-14T03:25:27;5.6;96.8
74484;SHT31;62942;52.462;10.846;2022-11-14T03:26:27;5.7;96.8
74484;SHT31;62942;52.462;10.846;2022-11-14T03:27:37;5.6;96.8
74484;SHT31;62942;52.462;10.846;2022-11-14T03:28:47;5.6;96.7
74484;SHT31;62942;52.462;10.846;2022-11-14T03:29:47;5.6;96.8
74484;SHT31;62942;52.462;10.846;2022-11-14T03:30:57;5.7;96.9
74484;SHT31;62942;52.462;10.846;2022-11-14T03:31:57;5.6;96.9
74484;SHT31;62942;52.462;10.846;2022-11-14T03:33:07;5.7;96.9
74484;SHT31;62942;52.462;10.846;2022-11-14T03:34:07;5.6;96.8
74484;SHT31;62942;52.462;10.846;2022-11-14T03:35:07;5.7;96.9
74484;SHT31;62942;52.462;10.846;2022-11-14T03:36:17;5.7;96.9
74484;SHT31;62942;52.462;10.846;2022-11-14T03:37:27;5.7;96.9
74484;SHT31;62942;52.462;10.846;2022-11-14T03:38:27;5.7;96.9
74484;SHT31;62942;52.462;10.846;2022-11-14T03:39:27;5.7;96.9
74484;SHT31;62942;52.462;10.846;2022-11-14T03:40:38;5.7;96.9
74484;SHT31;62942;52.462;10.846;2022-11-14T03:41:37;5.7;96.9
74484;SHT31;62942;52.462;10.846;2022-11-14T03:42:47;5.7;96.8
74484;SHT31;62942;52.462;10.846;2022-11-14T03:43:47;5.7;96.8
74484;SHT31;62942;52.462;10.846;2022-11-14T03:44:47;5.7;96.8
74484;SHT31;62942;52.462;10.846;2022-11-14T03:45:57;5.7;96.8
74484;SHT31;62942;52.462;10.846;2022-11-14T03:46:57;5.7;96.7
74484;SHT31;62942;52.462;10.846;2022-11-14T03:48:07;5.7;96.7
74484;SHT31;62942;52.462;10.846;2022-11-14T03:49:07;5.7;96.7
74484;SHT31;62942;52.462;10.846;2022-11-14T03:50:07;5.7;96.7
74484;SHT31;62942;52.462;10.846;2022-11-14T03:51:17;5.7;96.7
74484;SHT31;62942;52.462;10.846;2022-11-14T03:52:17;5.6;96.7
74484;SHT31;62942;52.462;10.846;2022-11-14T03:53:17;5.7;96.7
74484;SHT31;62942;52.462;10.846;2022-11-14T03:54:27;5.6;96.7
74484;SHT31;62942;52.462;10.846;2022-11-14T03:55:27;5.6;96.6
74484;SHT31;62942;52.462;10.846;2022-11-14T03:56:37;5.6;96.7
74484;SHT31;62942;52.462;10.846;2022-11-14T03:57:37;5.6;96.7
74484;SHT31;62942;52.462;10.846;2022-11-14T03:58:47;5.6;96.8
74484;SHT31;62942;52.462;10.846;2022-11-14T03:59:47;5.6;96.6
74484;SHT31;62942;52.462;10.846;2022-11-14T04:00:47;5.6;96.6
74484;SHT31;62942;52.462;10.846;2022-11-14T04:01:57;5.6;96.7
74484;SHT31;62942;52.462;10.846;2022-11-14T04:02:57;5.6;96.6
74484;SHT31;62942;52.462;10.846;2022-11-14T04:04:07;5.6;96.7
74484;SHT31;62942;52.462;10.846;2022-11-14T04:05:07;5.6;96.6
74484;SHT31;62942;52.462;10.846;2022-11-14T04:06:17;5.6;96.7
74484;SHT31;62942;52.462;10.846;2022-11-14T04:07:17;5.6;96.6
74484;SHT31;62942;52.462;10.846;2022-11-14T04:08:27;5.6;96.6
74484;SHT31;62942;52.462;10.846;2022-11-14T04:09:37;5.6;96.6
74484;SHT31;62942;52.462;10.846;2022-11-14T04:10:37;5.6;96.6
74484;SHT31;62942;52.462;10.846;2022-11-14T04:11:47;5.6;96.6
74484;SHT31;62942;52.462;10.846;2022-11-14T04:12:57;5.6;96.6
74484;SHT31;62942;52.462;10.846;2022-11-14T04:14:08;5.6;96.6
74484;SHT31;62942;52.462;10.846;2022-11-14T04:15:07;5.6;96.6
74484;SHT31;62942;52.462;10.846;2022-11-14T04:16:17;5.6;96.5
74484;SHT31;62942;52.462;10.846;2022-11-14T04:17:27;5.6;96.5
74484;SHT31;62942;52.462;10.846;2022-11-14T04:18:37;5.6;96.5
74484;SHT31;62942;52.462;10.846;2022-11-14T04:19:37;5.5;96.5
74484;SHT31;62942;52.462;10.846;2022-11-14T04:20:47;5.6;96.6
74484;SHT31;62942;52.462;10.846;2022-11-14T04:21:57;5.6;96.6
74484;SHT31;62942;52.462;10.846;2022-11-14T04:23:07;5.6;96.5
74484;SHT31;62942;52.462;10.846;2022-11-14T04:24:17;5.5;96.5
74484;SHT31;62942;52.462;10.846;2022-11-14T04:25:27;5.5;96.3
74484;SHT31;62942;52.462;10.846;2022-11-14T04:26:27;5.5;96.2
74484;SHT31;62942;52.462;10.846;2022-11-14T04:27:37;5.5;96.3
74484;SHT31;62942;52.462;10.846;2022-11-14T04:28:47;5.5;96.4
74484;SHT31;62942;52.462;10.846;2022-11-14T04:29:47;5.5;96.4
74484;SHT31;62942;52.462;10.846;2022-11-14T04:30:57;5.5;96.3
74484;SHT31;62942;52.462;10.846;2022-11-14T04:32:07;5.5;96.2
74484;SHT31;62942;52.462;10.846;2022-11-14T04:33:07;5.4;96.3
74484;SHT31;62942;52.462;10.846;2022-11-14T04:34:17;5.5;96.3
74484;SHT31;62942;52.462;10.846;2022-11-14T04:35:27;5.4;96.2
74484;SHT31;62942;52.462;10.846;2022-11-14T04:36:27;5.4;96.2
74484;SHT31;62942;52.462;10.846;2022-11-14T04:37:37;5.4;96.3
74484;SHT31;62942;52.462;10.846;2022-11-14T04:38:47;5.4;96.3
74484;SHT31;62942;52.462;10.846;2022-11-14T04:39:47;5.4;96.3
74484;SHT31;62942;52.462;10.846;2022-11-14T04:40:57;5.4;96.2
74484;SHT31;62942;52.462;10.846;2022-11-14T04:42:07;5.4;96.2
74484;SHT31;62942;52.462;10.846;2022-11-14T04:43:07;5.4;96.2
74484;SHT31;62942;52.462;10.846;2022-11-14T04:44:17;5.4;96.3
74484;SHT31;62942;52.462;10.846;2022-11-14T04:45:17;5.4;96.2
74484;SHT31;62942;52.462;10.846;2022-11-14T04:46:27;5.4;96.2
74484;SHT31;62942;52.462;10.846;2022-11-14T04:47:37;5.4;96.2
74484;SHT31;62942;52.462;10.846;2022-11-14T04:48:37;5.4;96.2
74484;SHT31;62942;52.462;10.846;2022-11-14T04:49:47;5.4;96.2
74484;SHT31;62942;52.462;10.846;2022-11-14T04:50:47;5.4;96.2
74484;SHT31;62942;52.462;10.846;2022-11-14T04:51:57;5.3;96.2
74484;SHT31;62942;52.462;10.846;2022-11-14T04:52:57;5.4;96.2
74484;SHT31;62942;52.462;10.846;2022-11-14T04:54:07;5.4;96.2
74484;SHT31;62942;52.462;10.846;2022-11-14T04:55:17;5.3;96.1
74484;SHT31;62942;52.462;10.846;2022-11-14T04:56:27;5.3;96.2
74484;SHT31;62942;52.462;10.846;2022-11-14T04:57:27;5.3;96.2
74484;SHT31;62942;52.462;10.846;2022-11-14T04:58:27;5.3;96.2
74484;SHT31;62942;52.462;10.846;2022-11-14T04:59:37;5.3;96.2
74484;SHT31;62942;52.462;10.846;2022-11-14T05:00:47;5.4;96.2
74484;SHT31;62942;52.462;10.846;2022-11-14T05:01:47;5.3;96.2
74484;SHT31;62942;52.462;10.846;2022-11-14T05:02:57;5.3;96.1
74484;SHT31;62942;52.462;10.846;2022-11-14T05:03:57;5.3;96.2
74484;SHT31;62942;52.462;10.846;2022-11-14T05:05:07;5.3;96.1
74484;SHT31;62942;52.462;10.846;2022-11-14T05:06:17;5.3;96.1
74484;SHT31;62942;52.462;10.846;2022-11-14T05:07:17;5.3;96.1
74484;SHT31;62942;52.462;10.846;2022-11-14T05:08:27;5.3;95.9
74484;SHT31;62942;52.462;10.846;2022-11-14T05:09:37;5.3;95.9
74484;SHT31;62942;52.462;10.846;2022-11-14T05:10:41;5.3;96
74484;SHT31;62942;52.462;10.846;2022-11-14T05:11:47;5.3;96.1
74484;SHT31;62942;52.462;10.846;2022-11-14T05:12:47;5.3;96
74484;SHT31;62942;52.462;10.846;2022-11-14T05:13:47;5.3;96
74484;SHT31;62942;52.462;10.846;2022-11-14T05:14:57;5.3;96
74484;SHT31;62942;52.462;10.846;2022-11-14T05:15:57;5.3;95.9
74484;SHT31;62942;52.462;10.846;2022-11-14T05:16:57;5.3;95.9
74484;SHT31;62942;52.462;10.846;2022-11-14T05:18:07;5.3;96
74484;SHT31;62942;52.462;10.846;2022-11-14T05:19:17;5.3;96
74484;SHT31;62942;52.462;10.846;2022-11-14T05:20:27;5.3;95.9
74484;SHT31;62942;52.462;10.846;2022-11-14T05:21:27;5.3;95.9
74484;SHT31;62942;52.462;10.846;2022-11-14T05:22:27;5.3;95.9
74484;SHT31;62942;52.462;10.846;2022-11-14T05:23:37;5.3;95.9
74484;SHT31;62942;52.462;10.846;2022-11-14T05:24:47;5.3;95.9
74484;SHT31;62942;52.462;10.846;2022-11-14T05:25:58;5.3;95.8
74484;SHT31;62942;52.462;10.846;2022-11-14T05:26:57;5.2;95.8
74484;SHT31;62942;52.462;10.846;2022-11-14T05:27:57;5.2;95.7
74484;SHT31;62942;52.462;10.846;2022-11-14T05:29:07;5.2;95.7
74484;SHT31;62942;52.462;10.846;2022-11-14T05:30:07;5.2;95.7
74484;SHT31;62942;52.462;10.846;2022-11-14T05:31:17;5.2;95.8
74484;SHT31;62942;52.462;10.846;2022-11-14T05:32:17;5.2;95.8
74484;SHT31;62942;52.462;10.846;2022-11-14T05:33:17;5.2;95.8
74484;SHT31;62942;52.462;10.846;2022-11-14T05:34:27;5.2;95.8
74484;SHT31;62942;52.462;10.846;2022-11-14T05:35:27;5.2;95.8
74484;SHT31;62942;52.462;10.846;2022-11-14T05:36:37;5.2;95.8
74484;SHT31;62942;52.462;10.846;2022-11-14T05:37:47;5.2;95.9
74484;SHT31;62942;52.462;10.846;2022-11-14T05:38:47;5.1;95.9
74484;SHT31;62942;52.462;10.846;2022-11-14T05:39:57;5.2;95.9
74484;SHT31;62942;52.462;10.846;2022-11-14T05:40:57;5.1;95.9
74484;SHT31;62942;52.462;10.846;2022-11-14T05:42:07;5.2;95.9
74484;SHT31;62942;52.462;10.846;2022-11-14T05:43:07;5.2;95.9
74484;SHT31;62942;52.462;10.846;2022-11-14T05:44:17;5.1;95.9
74484;SHT31;62942;52.462;10.846;2022-11-14T05:45:17;5.1;96
74484;SHT31;62942;52.462;10.846;2022-11-14T05:46:27;5.2;96
74484;SHT31;62942;52.462;10.846;2022-11-14T05:47:37;5.1;96
74484;SHT31;62942;52.462;10.846;2022-11-14T05:48:37;5.1;96
74484;SHT31;62942;52.462;10.846;2022-11-14T05:49:37;5.2;96
74484;SHT31;62942;52.462;10.846;2022-11-14T05:50:47;5.2;96
74484;SHT31;62942;52.462;10.846;2022-11-14T05:51:57;5.1;96.1
74484;SHT31;62942;52.462;10.846;2022-11-14T05:53:07;5.1;96.1
74484;SHT31;62942;52.462;10.846;2022-11-14T05:54:07;5.2;96.1
74484;SHT31;62942;52.462;10.846;2022-11-14T05:55:07;5.2;96.1
74484;SHT31;62942;52.462;10.846;2022-11-14T05:56:08;5.2;96.1
74484;SHT31;62942;52.462;10.846;2022-11-14T05:57:17;5.1;96.1
74484;SHT31;62942;52.462;10.846;2022-11-14T05:58:17;5.2;96.1
74484;SHT31;62942;52.462;10.846;2022-11-14T05:59:27;5.2;96.2
74484;SHT31;62942;52.462;10.846;2022-11-14T06:00:37;5.2;96.2
74484;SHT31;62942;52.462;10.846;2022-11-14T06:01:37;5.2;96.2
74484;SHT31;62942;52.462;10.846;2022-11-14T06:02:48;5.2;96.2
74484;SHT31;62942;52.462;10.846;2022-11-14T06:03:57;5.2;96.2
74484;SHT31;62942;52.462;10.846;2022-11-14T06:04:57;5.2;96.2
74484;SHT31;62942;52.462;10.846;2022-11-14T06:06:08;5.2;96.2
74484;SHT31;62942;52.462;10.846;2022-11-14T06:07:07;5.2;96.2
74484;SHT31;62942;52.462;10.846;2022-11-14T06:08:17;5.2;96.2
74484;SHT31;62942;52.462;10.846;2022-11-14T06:09:17;5.2;96.3
74484;SHT31;62942;52.462;10.846;2022-11-14T06:10:27;5.2;96.3
74484;SHT31;62942;52.462;10.846;2022-11-14T06:11:27;5.2;96.3
74484;SHT31;62942;52.462;10.846;2022-11-14T06:12:27;5.2;96.3
74484;SHT31;62942;52.462;10.846;2022-11-14T06:13:37;5.3;96.3
74484;SHT31;62942;52.462;10.846;2022-11-14T06:14:47;5.3;96.3
74484;SHT31;62942;52.462;10.846;2022-11-14T06:15:57;5.2;96.2
74484;SHT31;62942;52.462;10.846;2022-11-14T06:17:07;5.3;96.3
74484;SHT31;62942;52.462;10.846;2022-11-14T06:18:17;5.3;96.3
74484;SHT31;62942;52.462;10.846;2022-11-14T06:19:27;5.3;96.2
74484;SHT31;62942;52.462;10.846;2022-11-14T06:20:37;5.3;96.2
74484;SHT31;62942;52.462;10.846;2022-11-14T06:21:37;5.3;96.2
74484;SHT31;62942;52.462;10.846;2022-11-14T06:22:47;5.3;96.2
74484;SHT31;62942;52.462;10.846;2022-11-14T06:23:57;5.3;96.2
74484;SHT31;62942;52.462;10.846;2022-11-14T06:25:07;5.3;96.2
74484;SHT31;62942;52.462;10.846;2022-11-14T06:26:11;5.3;96.2
74484;SHT31;62942;52.462;10.846;2022-11-14T06:27:17;5.3;96.2
74484;SHT31;62942;52.462;10.846;2022-11-14T06:28:27;5.3;96.1
74484;SHT31;62942;52.462;10.846;2022-11-14T06:29:27;5.3;96.1
74484;SHT31;62942;52.462;10.846;2022-11-14T06:30:37;5.3;96.1
74484;SHT31;62942;52.462;10.846;2022-11-14T06:31:47;5.3;96.1
74484;SHT31;62942;52.462;10.846;2022-11-14T06:32:47;5.4;96.1
74484;SHT31;62942;52.462;10.846;2022-11-14T06:33:57;5.3;96.1
74484;SHT31;62942;52.462;10.846;2022-11-14T06:34:57;5.4;96.1
74484;SHT31;62942;52.462;10.846;2022-11-14T06:36:07;5.4;96.1
74484;SHT31;62942;52.462;10.846;2022-11-14T06:37:07;5.4;96.1
74484;SHT31;62942;52.462;10.846;2022-11-14T06:38:17;5.4;96
74484;SHT31;62942;52.462;10.846;2022-11-14T06:39:27;5.4;96
74484;SHT31;62942;52.462;10.846;2022-11-14T06:40:27;5.4;96
74484;SHT31;62942;52.462;10.846;2022-11-14T06:41:27;5.4;96
74484;SHT31;62942;52.462;10.846;2022-11-14T06:42:37;5.4;96
74484;SHT31;62942;52.462;10.846;2022-11-14T06:43:47;5.4;96
74484;SHT31;62942;52.462;10.846;2022-11-14T06:44:57;5.4;95.9
74484;SHT31;62942;52.462;10.846;2022-11-14T06:46:08;5.5;95.9
74484;SHT31;62942;52.462;10.846;2022-11-14T06:47:07;5.5;95.8
74484;SHT31;62942;52.462;10.846;2022-11-14T06:48:17;5.5;95.9
74484;SHT31;62942;52.462;10.846;2022-11-14T06:49:17;5.5;95.9
74484;SHT31;62942;52.462;10.846;2022-11-14T06:50:27;5.5;95.9
74484;SHT31;62942;52.462;10.846;2022-11-14T06:51:27;5.5;95.9
74484;SHT31;62942;52.462;10.846;2022-11-14T06:52:37;5.5;95.8
74484;SHT31;62942;52.462;10.846;2022-11-14T06:53:47;5.5;95.8
74484;SHT31;62942;52.462;10.846;2022-11-14T06:54:57;5.5;95.8
74484;SHT31;62942;52.462;10.846;2022-11-14T06:55:57;5.5;95.8
74484;SHT31;62942;52.462;10.846;2022-11-14T06:57:07;5.5;95.8
74484;SHT31;62942;52.462;10.846;2022-11-14T06:58:07;5.6;95.7
74484;SHT31;62942;52.462;10.846;2022-11-14T06:59:17;5.6;95.7
74484;SHT31;62942;52.462;10.846;2022-11-14T07:00:27;5.5;95.6
74484;SHT31;62942;52.462;10.846;2022-11-14T07:01:27;5.6;95.5
74484;SHT31;62942;52.462;10.846;2022-11-14T07:02:27;5.6;95.6
74484;SHT31;62942;52.462;10.846;2022-11-14T07:03:27;5.6;95.5
74484;SHT31;62942;52.462;10.846;2022-11-14T07:04:37;5.6;95.6
74484;SHT31;62942;52.462;10.846;2022-11-14T07:05:47;5.6;95.5
74484;SHT31;62942;52.462;10.846;2022-11-14T07:06:57;5.6;95.5
74484;SHT31;62942;52.462;10.846;2022-11-14T07:07:57;5.6;95.4
74484;SHT31;62942;52.462;10.846;2022-11-14T07:08:57;5.6;95.4
74484;SHT31;62942;52.462;10.846;2022-11-14T07:10:07;5.6;95.4